Time;durP1;ratioP1;P1;durP2;ratioP2;P2;SDS_P1;SDS_P2;PMS_P1;PMS_P2;Temp;Humidity;BMP_temperature;BMP_pressure;BME280_temperature;BME280_humidity;BME280_pressure;Samples;Min_cycle;Max_cycle;Signal;HPM_P1;HPM_P2
2023/09/12 00:01:57;;;;;;;14.35;8.52;;;;;;;;;;5002258;28;20558;-77
2023/09/12 00:04:22;;;;;;;15.38;8.77;;;;;;;;;;4982056;28;20058;-78
2023/09/12 00:06:47;;;;;;;11.90;8.27;;;;;;;;;;5065949;28;20125;-77
2023/09/12 00:09:12;;;;;;;12.80;8.70;;;;;;;;;;4987225;28;20018;-78
2023/09/12 00:11:38;;;;;;;10.85;8.93;;;;;;;;;;5063548;28;20775;-77
2023/09/12 00:14:03;;;;;;;12.73;9.93;;;;;;;;;;5010575;28;20045;-78
2023/09/12 00:16:28;;;;;;;16.45;9.90;;;;;;;;;;4998330;28;20121;-78
2023/09/12 00:18:54;;;;;;;12.55;8.82;;;;;;;;;;4995914;28;20556;-77
2023/09/12 00:21:19;;;;;;;11.35;9.27;;;;;;;;;;5003896;28;20549;-78
2023/09/12 00:23:44;;;;;;;11.68;9.07;;;;;;;;;;4993321;28;20049;-78
2023/09/12 00:26:10;;;;;;;12.23;10.27;;;;;;;;;;4998024;28;20515;-78
2023/09/12 00:28:35;;;;;;;13.18;9.55;;;;;;;;;;5001825;28;20044;-78
2023/09/12 00:31:00;;;;;;;12.55;8.43;;;;;;;;;;5001700;28;20038;-77
2023/09/12 00:33:26;;;;;;;13.98;8.43;;;;;;;;;;5000299;28;20053;-77
2023/09/12 00:35:51;;;;;;;18.13;9.23;;;;;;;;;;5005913;28;20121;-79
2023/09/12 00:38:16;;;;;;;10.07;8.27;;;;;;;;;;5004610;28;20106;-77
2023/09/12 00:40:42;;;;;;;15.25;8.70;;;;;;;;;;5002956;28;20041;-78
2023/09/12 00:43:07;;;;;;;11.05;8.10;;;;;;;;;;5007014;28;20026;-77
2023/09/12 00:45:33;;;;;;;10.95;8.65;;;;;;;;;;4985732;28;20274;-77
2023/09/12 00:48:01;;;;;;;12.20;8.75;;;;;;;;;;5005234;28;20025;-78
2023/09/12 00:50:27;;;;;;;11.27;8.65;;;;;;;;;;5001353;28;20026;-77
2023/09/12 00:52:54;;;;;;;12.05;8.82;;;;;;;;;;5003316;28;20034;-77
2023/09/12 00:55:19;;;;;;;11.60;8.18;;;;;;;;;;4983952;28;20049;-77
2023/09/12 00:57:45;;;;;;;13.88;8.98;;;;;;;;;;5004644;28;20096;-77
2023/09/12 01:00:12;;;;;;;14.35;9.73;;;;;;;;;;5004155;28;20044;-78
2023/09/12 01:02:42;;;;;;;13.05;9.60;;;;;;;;;;5001397;28;20026;-77
2023/09/12 01:05:09;;;;;;;12.57;9.32;;;;;;;;;;5007421;28;20095;-77
2023/09/12 01:07:37;;;;;;;18.25;9.60;;;;;;;;;;5005764;28;20033;-77
2023/09/12 01:10:04;;;;;;;13.20;8.95;;;;;;;;;;5005267;28;20511;-78
2023/09/12 01:12:30;;;;;;;14.70;8.90;;;;;;;;;;4987542;28;20040;-78
2023/09/12 01:14:55;;;;;;;11.82;8.75;;;;;;;;;;5006728;28;20026;-77
2023/09/12 01:17:22;;;;;;;13.23;8.85;;;;;;;;;;5003940;28;20047;-78
2023/09/12 01:19:48;;;;;;;12.95;8.77;;;;;;;;;;5005954;28;20053;-78
2023/09/12 01:22:50;;;;;;;12.57;9.13;;;;;;;;;;5004891;28;20057;-77
2023/09/12 01:25:34;;;;;;;12.40;8.80;;;;;;;;;;4997331;28;20034;-77
2023/09/12 01:28:05;;;;;;;13.02;9.25;;;;;;;;;;4988823;28;20058;-78
2023/09/12 01:30:33;;;;;;;13.18;8.85;;;;;;;;;;4984929;28;20030;-78
2023/09/12 01:32:59;;;;;;;16.40;9.80;;;;;;;;;;5001361;28;20048;-77
2023/09/12 01:35:24;;;;;;;16.23;10.45;;;;;;;;;;5007069;28;20054;-77
2023/09/12 01:37:50;;;;;;;12.63;9.52;;;;;;;;;;5004581;28;20406;-78
2023/09/12 01:40:16;;;;;;;14.60;9.60;;;;;;;;;;4997368;28;20029;-77
2023/09/12 01:42:45;;;;;;;14.90;9.23;;;;;;;;;;4988213;28;20503;-77
2023/09/12 01:45:13;;;;;;;17.50;9.52;;;;;;;;;;4986353;28;20022;-77
2023/09/12 01:47:39;;;;;;;12.93;8.93;;;;;;;;;;5005703;28;20041;-78
2023/09/12 01:50:08;;;;;;;15.50;9.18;;;;;;;;;;5008483;28;20140;-77
2023/09/12 01:52:35;;;;;;;12.90;9.00;;;;;;;;;;5003983;28;20037;-78
2023/09/12 01:55:02;;;;;;;12.25;9.32;;;;;;;;;;5003371;28;20403;-77
2023/09/12 01:57:27;;;;;;;15.95;9.70;;;;;;;;;;4986406;28;20053;-78
2023/09/12 01:59:53;;;;;;;15.02;9.95;;;;;;;;;;5003553;28;20110;-77
2023/09/12 02:02:18;;;;;;;13.05;9.00;;;;;;;;;;5002617;28;20654;-78
2023/09/12 02:04:54;;;;;;;11.57;9.40;;;;;;;;;;5042475;28;20039;-77
2023/09/12 02:07:21;;;;;;;13.45;9.80;;;;;;;;;;5003716;28;20034;-78
2023/09/12 02:09:46;;;;;;;15.65;9.55;;;;;;;;;;5003013;28;20050;-77
2023/09/12 02:12:11;;;;;;;10.15;9.02;;;;;;;;;;5000298;28;20045;-78
2023/09/12 02:14:37;;;;;;;16.42;9.32;;;;;;;;;;5005005;28;20026;-77
2023/09/12 02:17:03;;;;;;;15.52;10.18;;;;;;;;;;5003640;28;20045;-78
2023/09/12 02:19:28;;;;;;;16.55;10.43;;;;;;;;;;5002459;28;20042;-78
2023/09/12 02:21:53;;;;;;;16.33;10.50;;;;;;;;;;5000069;28;20083;-78
2023/09/12 02:24:21;;;;;;;16.33;10.63;;;;;;;;;;5002909;28;20546;-78
2023/09/12 02:26:46;;;;;;;12.48;9.73;;;;;;;;;;5002213;28;20112;-77
2023/09/12 02:29:12;;;;;;;13.15;9.20;;;;;;;;;;5001589;28;20134;-77
2023/09/12 02:31:37;;;;;;;13.63;9.38;;;;;;;;;;5000209;28;20427;-77
2023/09/12 02:34:02;;;;;;;15.13;10.48;;;;;;;;;;5002350;28;20042;-77
2023/09/12 02:36:28;;;;;;;16.67;9.88;;;;;;;;;;5004371;28;20121;-78
2023/09/12 02:38:53;;;;;;;18.92;10.68;;;;;;;;;;5004686;28;20021;-77
2023/09/12 02:41:19;;;;;;;12.07;9.65;;;;;;;;;;5003611;28;20415;-77
2023/09/12 02:43:44;;;;;;;14.55;10.45;;;;;;;;;;5003251;28;20034;-77
2023/09/12 02:46:09;;;;;;;13.48;9.80;;;;;;;;;;5002161;28;20041;-77
2023/09/12 02:48:34;;;;;;;11.02;9.45;;;;;;;;;;5004180;28;20065;-77
2023/09/12 02:51:00;;;;;;;12.25;9.25;;;;;;;;;;5001026;28;20084;-77
2023/09/12 02:53:25;;;;;;;17.17;10.18;;;;;;;;;;4984581;28;20519;-77
2023/09/12 02:55:51;;;;;;;13.75;9.43;;;;;;;;;;5001958;28;20130;-79
2023/09/12 02:58:16;;;;;;;15.32;9.80;;;;;;;;;;5003949;28;20038;-78
2023/09/12 03:00:42;;;;;;;14.88;9.68;;;;;;;;;;5002333;28;20157;-77
2023/09/12 03:03:08;;;;;;;15.30;9.05;;;;;;;;;;5000460;28;20443;-77
2023/09/12 03:05:34;;;;;;;12.40;9.02;;;;;;;;;;5009691;28;20498;-78
2023/09/12 03:07:59;;;;;;;12.32;8.95;;;;;;;;;;4986314;28;20034;-77
2023/09/12 03:10:24;;;;;;;14.82;8.60;;;;;;;;;;5002483;28;20121;-77
2023/09/12 03:12:50;;;;;;;13.88;9.38;;;;;;;;;;5001950;28;20035;-79
2023/09/12 03:15:15;;;;;;;10.82;9.07;;;;;;;;;;4999649;28;20124;-77
2023/09/12 03:17:40;;;;;;;10.82;8.90;;;;;;;;;;5003873;28;20022;-78
2023/09/12 03:20:08;;;;;;;12.60;8.80;;;;;;;;;;5006404;28;20431;-78
2023/09/12 03:22:37;;;;;;;13.75;9.43;;;;;;;;;;4999748;28;20034;-79
2023/09/12 03:25:03;;;;;;;11.07;9.00;;;;;;;;;;5001075;28;20026;-78
2023/09/12 03:27:28;;;;;;;13.48;9.30;;;;;;;;;;5004965;28;20050;-78
2023/09/12 03:29:54;;;;;;;17.58;9.70;;;;;;;;;;5003748;28;20480;-78
2023/09/12 03:32:19;;;;;;;12.60;8.70;;;;;;;;;;5006877;28;20046;-77
2023/09/12 03:34:44;;;;;;;14.25;9.15;;;;;;;;;;5000341;28;20042;-77
2023/09/12 03:37:10;;;;;;;13.32;9.43;;;;;;;;;;4995553;28;20038;-78
2023/09/12 03:39:35;;;;;;;13.13;9.35;;;;;;;;;;4998788;28;20030;-77
2023/09/12 03:42:00;;;;;;;14.23;9.35;;;;;;;;;;5008262;28;20083;-78
2023/09/12 03:44:26;;;;;;;12.98;9.35;;;;;;;;;;5005313;28;20037;-77
2023/09/12 03:46:51;;;;;;;12.32;8.95;;;;;;;;;;5002496;28;20043;-78
2023/09/12 03:49:16;;;;;;;14.52;9.32;;;;;;;;;;4999835;28;20091;-78
2023/09/12 03:51:41;;;;;;;21.60;10.13;;;;;;;;;;5000135;28;20099;-78
2023/09/12 03:54:07;;;;;;;11.93;9.27;;;;;;;;;;4999451;28;20026;-78
2023/09/12 03:56:32;;;;;;;16.27;9.77;;;;;;;;;;5003290;28;20314;-78
2023/09/12 03:58:59;;;;;;;15.57;9.63;;;;;;;;;;5002796;28;20500;-78
2023/09/12 04:01:25;;;;;;;18.50;9.98;;;;;;;;;;4998710;28;20034;-78
2023/09/12 04:03:50;;;;;;;15.40;10.13;;;;;;;;;;5000520;28;20519;-78
2023/09/12 04:06:15;;;;;;;15.63;9.80;;;;;;;;;;5003472;28;20029;-77
2023/09/12 04:08:40;;;;;;;15.82;9.85;;;;;;;;;;5006009;28;20376;-77
2023/09/12 04:11:06;;;;;;;17.42;9.98;;;;;;;;;;5005218;27;20030;-78
2023/09/12 04:13:31;;;;;;;11.77;10.07;;;;;;;;;;5013902;28;20026;-78
2023/09/12 04:15:56;;;;;;;15.10;10.32;;;;;;;;;;5001957;28;20063;-78
2023/09/12 04:18:22;;;;;;;11.60;9.23;;;;;;;;;;5009770;28;20166;-78
2023/09/12 04:20:47;;;;;;;15.00;9.65;;;;;;;;;;5009476;28;20435;-78
2023/09/12 04:23:12;;;;;;;15.07;9.85;;;;;;;;;;5005953;28;20113;-78
2023/09/12 04:25:37;;;;;;;14.85;9.70;;;;;;;;;;5008569;28;20038;-78
2023/09/12 04:28:03;;;;;;;15.98;10.00;;;;;;;;;;5007738;28;20438;-78
2023/09/12 04:30:29;;;;;;;11.93;9.43;;;;;;;;;;5000551;28;20042;-78
2023/09/12 04:32:54;;;;;;;19.60;10.32;;;;;;;;;;5001444;28;20091;-78
2023/09/12 04:35:20;;;;;;;14.90;9.80;;;;;;;;;;5004043;28;20030;-78
2023/09/12 04:37:47;;;;;;;14.10;10.00;;;;;;;;;;5009370;28;20062;-78
2023/09/12 04:40:12;;;;;;;10.77;8.73;;;;;;;;;;4989824;28;20047;-78
2023/09/12 04:42:38;;;;;;;14.90;9.25;;;;;;;;;;5006040;28;20068;-78
2023/09/12 04:45:03;;;;;;;12.80;9.45;;;;;;;;;;4991013;28;20108;-77
2023/09/12 04:47:29;;;;;;;15.93;9.77;;;;;;;;;;5011279;28;20036;-78
2023/09/12 04:49:54;;;;;;;12.18;9.05;;;;;;;;;;5008305;28;20452;-78
2023/09/12 04:52:19;;;;;;;14.70;9.52;;;;;;;;;;5003864;28;20071;-78
2023/09/12 04:54:45;;;;;;;16.58;9.52;;;;;;;;;;4986295;28;20053;-77
2023/09/12 04:57:10;;;;;;;15.15;9.25;;;;;;;;;;5007262;28;20158;-77
2023/09/12 04:59:35;;;;;;;12.15;9.10;;;;;;;;;;5004398;28;20433;-78
2023/09/12 05:02:01;;;;;;;12.45;8.90;;;;;;;;;;5001915;28;20037;-76
2023/09/12 05:04:26;;;;;;;12.30;9.05;;;;;;;;;;5000994;28;20061;-76
2023/09/12 05:06:51;;;;;;;13.40;9.23;;;;;;;;;;4987183;28;20069;-75
2023/09/12 05:09:16;;;;;;;14.80;9.02;;;;;;;;;;5008119;28;20036;-76
2023/09/12 05:11:42;;;;;;;12.73;9.48;;;;;;;;;;5002646;28;20974;-76
2023/09/12 05:14:07;;;;;;;12.75;9.30;;;;;;;;;;5005519;28;20069;-76
2023/09/12 05:16:33;;;;;;;16.55;9.55;;;;;;;;;;4990776;28;20048;-76
2023/09/12 05:18:58;;;;;;;11.30;8.63;;;;;;;;;;5013563;28;20038;-76
2023/09/12 05:21:23;;;;;;;10.15;8.30;;;;;;;;;;5002673;28;20041;-76
2023/09/12 05:23:48;;;;;;;11.18;8.30;;;;;;;;;;4986457;28;20391;-75
2023/09/12 05:26:14;;;;;;;10.65;8.43;;;;;;;;;;5000607;28;20034;-76
2023/09/12 05:28:39;;;;;;;11.10;7.78;;;;;;;;;;5001184;28;20056;-76
2023/09/12 05:31:05;;;;;;;11.93;7.85;;;;;;;;;;4982632;28;20526;-76
2023/09/12 05:33:30;;;;;;;17.13;8.80;;;;;;;;;;4999055;28;20453;-76
2023/09/12 05:35:55;;;;;;;11.38;7.82;;;;;;;;;;5000976;28;20057;-76
2023/09/12 05:38:21;;;;;;;8.48;7.20;;;;;;;;;;4999321;28;20139;-76
2023/09/12 05:40:49;;;;;;;7.82;7.03;;;;;;;;;;5000104;28;20042;-77
2023/09/12 05:43:15;;;;;;;10.90;7.47;;;;;;;;;;4996740;28;20968;-77
2023/09/12 05:45:40;;;;;;;9.43;7.22;;;;;;;;;;4998972;28;20038;-77
2023/09/12 05:48:05;;;;;;;11.00;7.38;;;;;;;;;;4985624;28;20057;-77
2023/09/12 05:50:31;;;;;;;9.77;7.10;;;;;;;;;;4996090;28;20468;-77
2023/09/12 05:52:56;;;;;;;12.10;7.00;;;;;;;;;;4997724;28;20046;-77
2023/09/12 05:55:21;;;;;;;10.63;7.28;;;;;;;;;;4998704;28;20672;-76
2023/09/12 05:57:52;;;;;;;9.68;6.97;;;;;;;;;;4997636;28;20132;-77
2023/09/12 06:00:17;;;;;;;7.80;6.40;;;;;;;;;;4985415;28;20492;-76
2023/09/12 06:02:43;;;;;;;9.63;6.80;;;;;;;;;;5002016;28;20052;-77
2023/09/12 06:05:08;;;;;;;9.32;6.82;;;;;;;;;;4993790;28;20063;-76
2023/09/12 06:07:34;;;;;;;8.82;6.85;;;;;;;;;;4998895;28;20087;-77
2023/09/12 06:10:00;;;;;;;9.82;6.03;;;;;;;;;;5001735;28;20045;-77
2023/09/12 06:12:25;;;;;;;10.48;6.53;;;;;;;;;;4996976;28;20034;-77
2023/09/12 06:14:53;;;;;;;7.00;6.30;;;;;;;;;;5004874;28;20403;-77
2023/09/12 06:17:18;;;;;;;8.98;6.07;;;;;;;;;;4983329;28;20491;-77
2023/09/12 06:19:43;;;;;;;8.48;6.38;;;;;;;;;;5001342;28;20029;-77
2023/09/12 06:22:08;;;;;;;10.02;5.85;;;;;;;;;;5000513;28;20026;-77
2023/09/12 06:24:34;;;;;;;7.53;6.15;;;;;;;;;;4998431;28;20033;-77
2023/09/12 06:26:59;;;;;;;9.00;6.03;;;;;;;;;;4996661;28;20030;-76
2023/09/12 06:29:24;;;;;;;7.75;5.78;;;;;;;;;;5000138;28;20519;-77
2023/09/12 06:31:50;;;;;;;7.45;5.75;;;;;;;;;;4996889;28;20154;-77
2023/09/12 06:34:15;;;;;;;8.90;6.00;;;;;;;;;;4994841;28;20148;-77
2023/09/12 06:36:44;;;;;;;7.07;5.75;;;;;;;;;;5001481;28;20440;-77
2023/09/12 06:39:10;;;;;;;7.38;6.20;;;;;;;;;;4998113;28;20484;-77
2023/09/12 06:41:35;;;;;;;7.60;6.40;;;;;;;;;;4979563;28;20136;-77
2023/09/12 06:44:02;;;;;;;6.18;5.50;;;;;;;;;;4981045;28;20545;-77
2023/09/12 06:46:28;;;;;;;10.43;6.68;;;;;;;;;;4993622;28;20121;-77
2023/09/12 06:48:53;;;;;;;7.18;5.82;;;;;;;;;;5002665;28;20534;-77
2023/09/12 06:51:23;;;;;;;6.40;5.20;;;;;;;;;;5010272;28;20499;-77
2023/09/12 06:53:49;;;;;;;6.13;5.53;;;;;;;;;;4995612;28;20034;-77
2023/09/12 06:56:14;;;;;;;9.25;5.72;;;;;;;;;;4999049;28;20102;-77
2023/09/12 06:58:39;;;;;;;5.53;4.78;;;;;;;;;;4995991;28;20046;-77
2023/09/12 07:01:06;;;;;;;6.65;5.30;;;;;;;;;;4997265;28;20383;-77
2023/09/12 07:03:35;;;;;;;5.65;5.15;;;;;;;;;;4999799;28;20045;-77
2023/09/12 07:06:02;;;;;;;5.70;5.07;;;;;;;;;;4995485;28;20435;-77
2023/09/12 07:08:29;;;;;;;6.00;5.28;;;;;;;;;;4981676;28;20128;-77
2023/09/12 07:10:56;;;;;;;7.97;6.40;;;;;;;;;;4993888;28;20773;-76
2023/09/12 07:13:22;;;;;;;6.65;5.60;;;;;;;;;;4980803;28;20038;-76
2023/09/12 07:15:47;;;;;;;9.75;5.80;;;;;;;;;;4993272;28;20091;-76
2023/09/12 07:18:14;;;;;;;8.05;5.68;;;;;;;;;;4996580;28;20029;-76
2023/09/12 07:20:40;;;;;;;7.05;5.13;;;;;;;;;;4996045;28;20018;-76
2023/09/12 07:23:05;;;;;;;10.27;5.78;;;;;;;;;;4997643;28;20045;-76
2023/09/12 07:25:30;;;;;;;5.53;4.97;;;;;;;;;;4997221;28;20037;-76
2023/09/12 07:27:56;;;;;;;5.60;5.00;;;;;;;;;;4977877;28;20078;-77
2023/09/12 07:30:21;;;;;;;6.25;5.65;;;;;;;;;;4994006;28;20045;-77
2023/09/12 07:32:46;;;;;;;8.98;5.75;;;;;;;;;;4998777;28;20038;-76
2023/09/12 07:35:11;;;;;;;7.68;5.15;;;;;;;;;;4999600;28;20496;-76
2023/09/12 07:37:37;;;;;;;6.15;4.93;;;;;;;;;;4997784;28;20099;-77
2023/09/12 07:40:09;;;;;;;6.03;5.28;;;;;;;;;;4998571;28;20396;-76
2023/09/12 07:42:34;;;;;;;8.43;5.38;;;;;;;;;;4982804;28;20083;-77
2023/09/12 07:44:59;;;;;;;7.38;5.47;;;;;;;;;;4998162;28;20061;-76
2023/09/12 07:47:25;;;;;;;5.95;5.30;;;;;;;;;;4997441;28;20030;-76
2023/09/12 07:49:54;;;;;;;6.55;5.50;;;;;;;;;;4997417;28;20173;-77
2023/09/12 07:52:19;;;;;;;8.57;5.00;;;;;;;;;;4990162;28;20060;-77
2023/09/12 07:54:44;;;;;;;6.43;5.03;;;;;;;;;;4994792;28;20026;-76
2023/09/12 07:57:10;;;;;;;5.85;5.22;;;;;;;;;;5006251;28;20022;-76
2023/09/12 07:59:35;;;;;;;7.07;5.18;;;;;;;;;;5002736;28;20468;-77
2023/09/12 08:02:00;;;;;;;7.07;5.60;;;;;;;;;;4999025;28;20042;-77
2023/09/12 08:04:26;;;;;;;9.60;5.35;;;;;;;;;;4983941;28;20046;-77
2023/09/12 08:06:52;;;;;;;6.03;5.43;;;;;;;;;;4996101;28;20088;-78
2023/09/12 08:09:17;;;;;;;11.02;5.13;;;;;;;;;;4999952;28;20027;-78
2023/09/12 08:11:43;;;;;;;7.85;5.63;;;;;;;;;;4998539;28;20388;-78
2023/09/12 08:14:08;;;;;;;6.38;5.63;;;;;;;;;;5004724;28;20072;-77
2023/09/12 08:16:33;;;;;;;6.43;5.20;;;;;;;;;;4999412;28;20142;-77
2023/09/12 08:18:59;;;;;;;9.02;5.60;;;;;;;;;;4979926;28;20042;-78
2023/09/12 08:21:24;;;;;;;7.88;5.88;;;;;;;;;;4984220;28;20038;-78
2023/09/12 08:23:50;;;;;;;7.53;5.38;;;;;;;;;;4996449;28;20038;-78
2023/09/12 08:26:16;;;;;;;7.60;5.47;;;;;;;;;;5006571;28;20491;-78
2023/09/12 08:28:41;;;;;;;9.20;5.50;;;;;;;;;;4977106;28;20030;-77
2023/09/12 08:31:07;;;;;;;8.00;5.60;;;;;;;;;;4999197;28;20041;-78
2023/09/12 08:33:33;;;;;;;6.35;5.35;;;;;;;;;;4996480;28;20038;-78
2023/09/12 08:35:58;;;;;;;6.65;5.38;;;;;;;;;;4999559;28;20083;-77
2023/09/12 08:38:26;;;;;;;7.13;5.25;;;;;;;;;;4995056;28;20464;-77
2023/09/12 08:40:51;;;;;;;6.43;5.43;;;;;;;;;;4998258;28;20109;-78
2023/09/12 08:43:17;;;;;;;7.53;5.78;;;;;;;;;;4998942;28;20061;-78
2023/09/12 08:45:45;;;;;;;9.80;5.82;;;;;;;;;;4998764;28;20077;-78
2023/09/12 08:48:12;;;;;;;7.18;5.30;;;;;;;;;;5001632;28;20397;-77
2023/09/12 08:50:38;;;;;;;6.63;5.50;;;;;;;;;;4977206;28;20041;-78
2023/09/12 08:53:04;;;;;;;7.50;5.50;;;;;;;;;;5001197;28;20117;-77
2023/09/12 08:55:31;;;;;;;11.65;5.75;;;;;;;;;;5001961;28;20483;-78
2023/09/12 08:57:58;;;;;;;6.85;5.32;;;;;;;;;;5003125;28;20456;-78
2023/09/12 09:00:24;;;;;;;8.75;5.85;;;;;;;;;;5001072;28;20046;-78
2023/09/12 09:02:50;;;;;;;6.25;5.63;;;;;;;;;;4998942;28;20021;-78
2023/09/12 09:05:16;;;;;;;7.60;5.60;;;;;;;;;;4997919;28;20046;-78
2023/09/12 09:07:42;;;;;;;7.32;5.43;;;;;;;;;;5003535;28;20043;-77
2023/09/12 09:10:14;;;;;;;5.95;5.28;;;;;;;;;;5002880;28;20083;-77
2023/09/12 09:12:40;;;;;;;8.45;5.68;;;;;;;;;;4999658;28;20069;-78
2023/09/12 09:15:25;;;;;;;6.43;5.72;;;;;;;;;;4986930;28;20021;-78
2023/09/12 09:17:55;;;;;;;7.88;5.50;;;;;;;;;;5000190;28;20112;-78
2023/09/12 09:20:30;;;;;;;22.30;6.63;;;;;;;;;;5000570;28;20038;-77
2023/09/12 09:23:01;;;;;;;9.60;5.57;;;;;;;;;;5000255;28;20073;-78
2023/09/12 09:25:27;;;;;;;7.20;5.38;;;;;;;;;;4995624;28;20065;-77
2023/09/12 09:27:53;;;;;;;5.90;5.30;;;;;;;;;;5000295;28;20042;-78
2023/09/12 09:30:38;;;;;;;9.07;5.53;;;;;;;;;;5001931;28;20034;-78
2023/09/12 09:33:04;;;;;;;7.03;5.40;;;;;;;;;;5002608;28;20041;-77
2023/09/12 09:35:29;;;;;;;8.13;5.60;;;;;;;;;;5006302;28;20033;-77
2023/09/12 09:37:58;;;;;;;10.50;5.30;;;;;;;;;;5002514;28;20041;-77
2023/09/12 09:40:24;;;;;;;10.68;5.80;;;;;;;;;;5000430;28;20041;-77
2023/09/12 09:43:01;;;;;;;8.45;5.53;;;;;;;;;;4996650;28;20527;-77
2023/09/12 09:45:31;;;;;;;5.80;5.25;;;;;;;;;;5001422;28;20031;-78
2023/09/12 09:47:59;;;;;;;5.68;5.18;;;;;;;;;;5007155;28;20109;-77
2023/09/12 09:50:25;;;;;;;5.68;4.72;;;;;;;;;;5005526;28;20041;-78
2023/09/12 09:52:57;;;;;;;6.35;4.80;;;;;;;;;;5002822;28;20057;-78
2023/09/12 09:55:23;;;;;;;8.63;4.97;;;;;;;;;;4978213;28;20031;-77
2023/09/12 09:57:51;;;;;;;9.25;4.80;;;;;;;;;;5002263;28;20060;-78
2023/09/12 10:00:19;;;;;;;6.60;4.75;;;;;;;;;;5010903;28;20044;-78
2023/09/12 10:02:47;;;;;;;6.63;4.97;;;;;;;;;;5005072;28;20028;-77
2023/09/12 10:05:13;;;;;;;6.25;4.95;;;;;;;;;;5000646;28;20083;-78
2023/09/12 10:07:40;;;;;;;9.32;5.30;;;;;;;;;;4996930;28;20124;-77
2023/09/12 10:10:09;;;;;;;5.80;4.80;;;;;;;;;;5004617;28;20033;-78
2023/09/12 10:12:37;;;;;;;10.23;4.72;;;;;;;;;;4997986;28;20087;-78
2023/09/12 10:15:04;;;;;;;6.30;4.65;;;;;;;;;;5003830;28;20035;-78
2023/09/12 10:17:39;;;;;;;6.38;4.60;;;;;;;;;;5003636;28;20524;-77
2023/09/12 10:20:11;;;;;;;13.30;5.43;;;;;;;;;;5002902;28;20035;-78
2023/09/12 10:23:11;;;;;;;5.38;4.90;;;;;;;;;;4991336;28;20018;-78
2023/09/12 10:25:37;;;;;;;5.80;4.38;;;;;;;;;;4997932;28;20041;-77
2023/09/12 10:28:08;;;;;;;6.95;4.43;;;;;;;;;;4986733;28;20054;-77
2023/09/12 10:30:35;;;;;;;7.63;4.63;;;;;;;;;;5001192;28;20041;-77
2023/09/12 10:33:03;;;;;;;5.60;4.20;;;;;;;;;;5006567;28;20095;-77
2023/09/12 10:35:31;;;;;;;8.25;4.97;;;;;;;;;;4996467;28;20041;-76
2023/09/12 10:37:59;;;;;;;9.43;5.32;;;;;;;;;;5003540;28;20046;-77
2023/09/12 10:40:27;;;;;;;8.40;4.60;;;;;;;;;;5001937;28;20407;-78
2023/09/12 10:42:55;;;;;;;5.80;4.70;;;;;;;;;;5001939;28;20040;-77
2023/09/12 10:45:21;;;;;;;6.25;4.50;;;;;;;;;;4998841;28;20057;-77
2023/09/12 10:47:46;;;;;;;4.68;4.18;;;;;;;;;;5003633;28;20023;-78
2023/09/12 10:50:12;;;;;;;5.57;4.63;;;;;;;;;;4979453;28;20104;-78
2023/09/12 10:52:39;;;;;;;4.60;4.20;;;;;;;;;;4983981;28;20145;-77
2023/09/12 10:55:06;;;;;;;6.22;4.72;;;;;;;;;;4987493;28;20049;-77
2023/09/12 10:57:32;;;;;;;6.20;4.13;;;;;;;;;;5002780;28;20395;-77
2023/09/12 11:00:24;;;;;;;4.53;4.13;;;;;;;;;;5009512;28;20034;-80
2023/09/12 11:02:49;;;;;;;4.85;4.15;;;;;;;;;;5005151;28;20417;-77
2023/09/12 11:05:36;;;;;;;5.07;4.15;;;;;;;;;;5003735;28;20118;-77
2023/09/12 11:08:04;;;;;;;4.93;4.32;;;;;;;;;;4994829;28;20034;-77
2023/09/12 11:10:31;;;;;;;6.80;4.40;;;;;;;;;;4994359;28;20049;-76
2023/09/12 11:12:57;;;;;;;4.72;4.32;;;;;;;;;;4994493;28;20035;-79
2023/09/12 11:15:27;;;;;;;6.40;4.50;;;;;;;;;;5001333;28;21390;-77
2023/09/12 11:18:05;;;;;;;4.53;4.10;;;;;;;;;;5003776;28;20018;-77
2023/09/12 11:21:03;;;;;;;4.78;4.20;;;;;;;;;;4999286;28;20052;-77
2023/09/12 11:23:28;;;;;;;6.70;4.40;;;;;;;;;;5000121;28;20470;-77
2023/09/12 11:26:07;;;;;;;11.45;5.18;;;;;;;;;;5002050;28;20121;-77
2023/09/12 11:28:33;;;;;;;5.65;4.20;;;;;;;;;;4980686;28;20042;-76
2023/09/12 11:30:59;;;;;;;5.15;4.50;;;;;;;;;;4980397;28;20252;-77
2023/09/12 11:33:26;;;;;;;4.90;4.45;;;;;;;;;;4982996;28;20040;-77
2023/09/12 11:35:55;;;;;;;6.18;4.50;;;;;;;;;;4999882;28;20030;-77
2023/09/12 11:38:31;;;;;;;6.35;4.32;;;;;;;;;;4999004;28;20080;-78
2023/09/12 11:41:00;;;;;;;6.20;4.10;;;;;;;;;;5001209;28;20518;-77
2023/09/12 11:43:27;;;;;;;6.07;4.00;;;;;;;;;;4979432;28;20065;-77
2023/09/12 11:45:54;;;;;;;7.53;4.05;;;;;;;;;;5048924;28;20094;-77
2023/09/12 11:48:20;;;;;;;7.55;4.38;;;;;;;;;;4979177;28;20033;-77
2023/09/12 11:50:51;;;;;;;4.47;4.07;;;;;;;;;;5004167;28;20042;-77
2023/09/12 11:53:21;;;;;;;8.50;4.70;;;;;;;;;;4999663;28;20054;-77
2023/09/12 11:55:48;;;;;;;10.73;4.00;;;;;;;;;;4980969;28;20068;-76
2023/09/12 11:58:17;;;;;;;10.13;4.40;;;;;;;;;;4984552;28;20468;-77
2023/09/12 12:00:51;;;;;;;4.75;4.35;;;;;;;;;;4997149;28;20042;-77
2023/09/12 12:03:17;;;;;;;;;;;;;;;;;;4995544;28;20058;-76
2023/09/12 12:05:43;;;;;;;6.38;4.00;;;;;;;;;;4982641;28;20477;-75
2023/09/12 12:08:10;;;;;;;8.20;3.78;;;;;;;;;;4997207;28;20046;-76
2023/09/12 12:10:38;;;;;;;7.18;4.22;;;;;;;;;;5008566;28;20038;-76
2023/09/12 12:13:03;;;;;;;8.98;4.38;;;;;;;;;;4999871;28;20090;-76
2023/09/12 12:15:29;;;;;;;6.57;3.97;;;;;;;;;;4982078;28;20437;-76
2023/09/12 12:17:55;;;;;;;5.50;4.35;;;;;;;;;;5001451;28;20030;-75
2023/09/12 12:20:21;;;;;;;6.13;3.88;;;;;;;;;;4998283;28;20057;-76
2023/09/12 12:22:46;;;;;;;8.05;4.53;;;;;;;;;;4985922;28;20034;-76
2023/09/12 12:25:12;;;;;;;8.98;4.10;;;;;;;;;;4997732;28;20109;-76
2023/09/12 12:27:41;;;;;;;12.60;4.05;;;;;;;;;;4997506;28;20222;-75
2023/09/12 12:30:09;;;;;;;4.82;4.07;;;;;;;;;;4984356;28;20436;-75
2023/09/12 12:32:39;;;;;;;7.60;4.35;;;;;;;;;;5004799;28;20033;-76
2023/09/12 12:35:05;;;;;;;5.38;4.05;;;;;;;;;;5002017;28;20034;-76
2023/09/12 12:37:30;;;;;;;5.55;4.10;;;;;;;;;;4998633;28;20532;-76
2023/09/12 12:39:56;;;;;;;6.55;4.03;;;;;;;;;;4999111;28;20112;-75
2023/09/12 12:42:23;;;;;;;4.40;4.00;;;;;;;;;;4997395;28;20053;-75
2023/09/12 12:44:53;;;;;;;5.30;4.00;;;;;;;;;;4998991;28;20048;-76
2023/09/12 12:47:20;;;;;;;6.28;4.53;;;;;;;;;;5004388;28;20030;-76
2023/09/12 12:49:51;;;;;;;8.32;3.90;;;;;;;;;;4993287;28;20539;-76
2023/09/12 12:52:16;;;;;;;5.85;4.28;;;;;;;;;;4984667;28;20042;-76
2023/09/12 12:54:43;;;;;;;4.68;4.22;;;;;;;;;;4977963;28;20069;-75
2023/09/12 12:57:12;;;;;;;11.68;4.60;;;;;;;;;;4996164;28;20025;-76
2023/09/12 12:59:38;;;;;;;5.22;4.15;;;;;;;;;;4998814;28;20080;-76
2023/09/12 13:02:03;;;;;;;6.63;4.32;;;;;;;;;;4999063;28;20037;-75
2023/09/12 13:04:35;;;;;;;7.18;4.43;;;;;;;;;;4981487;28;20045;-76
2023/09/12 13:07:00;;;;;;;5.03;4.38;;;;;;;;;;5003497;28;20403;-75
2023/09/12 13:09:26;;;;;;;7.43;4.53;;;;;;;;;;5001930;28;20041;-76
2023/09/12 13:11:52;;;;;;;5.25;4.18;;;;;;;;;;4985598;28;20030;-76
2023/09/12 13:14:19;;;;;;;7.07;4.40;;;;;;;;;;4998249;28;20511;-75
2023/09/12 13:16:44;;;;;;;5.75;4.18;;;;;;;;;;4997451;28;20742;-76
2023/09/12 13:19:11;;;;;;;5.85;4.43;;;;;;;;;;4999403;28;20026;-76
2023/09/12 13:21:37;;;;;;;5.50;4.15;;;;;;;;;;4994847;28;20037;-76
2023/09/12 13:24:03;;;;;;;5.38;4.88;;;;;;;;;;4995325;28;20182;-76
2023/09/12 13:26:29;;;;;;;5.30;4.78;;;;;;;;;;4983465;28;20121;-76
2023/09/12 13:28:54;;;;;;;11.75;4.90;;;;;;;;;;5000965;28;20037;-77
2023/09/12 13:31:19;;;;;;;9.63;5.07;;;;;;;;;;4996271;28;20041;-76
2023/09/12 13:33:44;;;;;;;5.07;4.28;;;;;;;;;;4999325;28;20042;-78
2023/09/12 13:36:10;;;;;;;6.95;4.20;;;;;;;;;;4994766;28;20113;-78
2023/09/12 13:38:36;;;;;;;7.10;4.45;;;;;;;;;;4983512;28;20026;-78
2023/09/12 13:41:01;;;;;;;8.65;4.70;;;;;;;;;;5002384;28;20043;-76
2023/09/12 13:43:28;;;;;;;8.43;4.32;;;;;;;;;;4979401;28;20453;-77
2023/09/12 13:45:53;;;;;;;10.65;4.32;;;;;;;;;;4997091;28;20117;-77
2023/09/12 13:48:18;;;;;;;5.68;4.30;;;;;;;;;;4982251;28;20455;-78
2023/09/12 13:50:44;;;;;;;8.30;4.53;;;;;;;;;;5000144;28;20457;-78
2023/09/12 13:53:09;;;;;;;5.90;4.28;;;;;;;;;;4999487;28;20523;-78
2023/09/12 13:55:35;;;;;;;5.63;4.40;;;;;;;;;;5003946;28;20030;-77
2023/09/12 13:58:06;;;;;;;4.93;4.22;;;;;;;;;;4999058;28;20033;-78
2023/09/12 14:00:33;;;;;;;7.28;4.07;;;;;;;;;;4978609;28;20054;-78
2023/09/12 14:02:59;;;;;;;5.53;4.32;;;;;;;;;;4999014;28;20030;-78
2023/09/12 14:05:24;;;;;;;8.02;4.72;;;;;;;;;;4975636;28;20554;-78
2023/09/12 14:07:51;;;;;;;6.35;4.57;;;;;;;;;;4994900;28;20030;-78
2023/09/12 14:10:16;;;;;;;6.75;4.35;;;;;;;;;;4997765;28;20040;-77
2023/09/12 14:12:42;;;;;;;8.10;4.70;;;;;;;;;;4998797;28;20035;-78
2023/09/12 14:15:08;;;;;;;6.78;4.40;;;;;;;;;;4997181;28;20499;-77
2023/09/12 14:17:33;;;;;;;8.40;4.00;;;;;;;;;;4984103;28;20104;-77
2023/09/12 14:19:59;;;;;;;8.57;4.30;;;;;;;;;;4976953;28;20114;-77
2023/09/12 14:22:24;;;;;;;6.10;4.30;;;;;;;;;;5003613;28;20065;-77
2023/09/12 14:24:49;;;;;;;10.23;4.50;;;;;;;;;;5003043;28;20121;-77
2023/09/12 14:27:15;;;;;;;6.22;4.22;;;;;;;;;;4996149;28;21421;-78
2023/09/12 14:29:40;;;;;;;7.35;4.15;;;;;;;;;;5004456;28;20495;-78
2023/09/12 14:32:05;;;;;;;9.77;4.35;;;;;;;;;;4984562;28;20038;-78
2023/09/12 14:34:32;;;;;;;6.80;4.70;;;;;;;;;;5002560;28;20037;-78